Brahms — 9HA3558 — position and weather

sailwx.info

Track history (hours):
 
Tides and Currents Weather Stations Pressure Air Temp Water Temp Dewpoint Dewpoint Depression Visibility Wind Speed Wind Dir Waves Ship Positions

Brahms

Last reported at 2017-Dec-12 02:02 UTC. Time now 2017-Dec-16 07:06 UTC.
Position N 00°11' W 050°44'.

Length 225 m; draft 11.6 m.

Type: Other ship. MMSI: 229731000.

Date/timePositionNaut miles runAvg speedWind from/ knotsBaromVisibWave heightAir tempDewpointWater temp
2017-Dec-12 02:02N 00°11' W 050°44'011.4
2017-Dec-12 02:00N 00°11' W 050°44'510.6
2017-Dec-12 01:30N 00°10' W 050°49'510.0
2017-Dec-12 01:00N 00°10' W 050°54'5 9.8
2017-Dec-12 00:30N 00°06' W 050°58'5 9.7
2017-Dec-12 00:00N 00°02' W 051°00'4 8.4
2017-Dec-11 23:30S 00°01' W 051°03'4 7.3
2017-Dec-11 23:00S 00°03' W 051°06'1 1.2
2017-Dec-11 22:25S 00°04' W 051°06'0 0.1
2017-Dec-11 21:55S 00°04' W 051°06'0 0.1
2017-Dec-11 21:28S 00°04' W 051°06'0 0.2
2017-Dec-11 20:55S 00°04' W 051°06'0 0.2
2017-Dec-11 20:28S 00°04' W 051°06'0 0.1
2017-Dec-11 19:58S 00°04' W 051°06'0 0.0
2017-Dec-11 19:28S 00°04' W 051°06'0 0.1
2017-Dec-11 18:58S 00°04' W 051°06'0 0.0
2017-Dec-11 18:28S 00°04' W 051°06'0 0.0
2017-Dec-11 17:58S 00°04' W 051°06'0 0.0
2017-Dec-11 17:28S 00°04' W 051°06'0 0.1
2017-Dec-11 16:58S 00°04' W 051°06'1 2.0
2017-Dec-11 16:30S 00°04' W 051°05'7 6.6
2017-Dec-11 15:24N 00°02' W 051°00'2 5.3
2017-Dec-11 15:00N 00°03' W 050°59'0 0.7
2017-Dec-11 14:27N 00°03' W 050°59'0 0.0
2017-Dec-11 13:57N 00°03' W 050°59'0 0.0
2017-Dec-11 13:27N 00°03' W 050°59'0 0.0
2017-Dec-11 12:57N 00°03' W 050°59'0 0.0
2017-Dec-11 12:27N 00°03' W 050°59'0 0.0
2017-Dec-11 11:57N 00°03' W 050°59'0 0.0
2017-Dec-11 11:27N 00°03' W 050°59'0 0.1
2017-Dec-11 10:57N 00°03' W 050°59'0 0.5
2017-Dec-11 10:27N 00°03' W 050°59'0 0.2
2017-Dec-11 09:57N 00°03' W 050°59'0 0.0
2017-Dec-11 09:27N 00°03' W 050°59'0 0.0
2017-Dec-11 08:57N 00°03' W 050°59'0 0.0
2017-Dec-11 08:27N 00°03' W 050°59'0 0.0
2017-Dec-11 07:57N 00°03' W 050°59'0 0.0
2017-Dec-11 07:27N 00°03' W 050°59'0 0.0
2017-Dec-11 06:57N 00°03' W 050°59'0 0.0
2017-Dec-11 06:27N 00°03' W 050°59'0 0.0
2017-Dec-11 05:57N 00°03' W 050°59'0 0.0
2017-Dec-11 05:27N 00°03' W 050°59'0 0.0
2017-Dec-11 04:57N 00°03' W 050°59'0 0.0
2017-Dec-11 04:27N 00°03' W 050°59'0 0.0
2017-Dec-11 03:57N 00°03' W 050°59'0 0.0
2017-Dec-11 03:27N 00°03' W 050°59'0 0.1
2017-Dec-11 02:57N 00°03' W 050°59'0 0.3
2017-Dec-11 02:27N 00°03' W 050°59'0 0.2
2017-Dec-11 01:57N 00°03' W 050°59'0 0.1
2017-Dec-11 01:27N 00°03' W 050°59'0 0.0
2017-Dec-11 00:57N 00°03' W 050°59'0 0.0
2017-Dec-11 00:27N 00°03' W 050°59'0 0.2
2017-Dec-10 23:57N 00°03' W 050°59'1 1.9
2017-Dec-10 23:30N 00°02' W 050°60'3 5.6
2017-Dec-10 23:00S 00°00' W 051°01'3 6.0
2017-Dec-10 22:30S 00°03' W 051°00'5 9.3
2017-Dec-10 22:00S 00°08' W 051°01'331 6.4
2017-Dec-08 18:17S 01°28' W 056°23'0 0.0
2017-Dec-08 17:58S 01°28' W 056°23'0 0.0
2017-Dec-08 17:26S 01°28' W 056°23'0 0.0
2017-Dec-08 16:53S 01°28' W 056°23'0 0.0
2017-Dec-08 16:28S 01°28' W 056°23'0 0.0
2017-Dec-08 15:58S 01°28' W 056°23'0 0.0
2017-Dec-08 15:25S 01°28' W 056°23'0 0.0
2017-Dec-08 14:58S 01°28' W 056°23'0 0.0
2017-Dec-08 14:28S 01°28' W 056°23'0 0.0
2017-Dec-08 13:56S 01°28' W 056°23'0 0.0
2017-Dec-08 13:25S 01°28' W 056°23'0 0.0
2017-Dec-08 12:58S 01°28' W 056°23'0 0.0
2017-Dec-08 12:28S 01°28' W 056°23'0 0.0
2017-Dec-08 11:58S 01°28' W 056°23'0 0.0
2017-Dec-08 11:28S 01°28' W 056°23'0 0.0
2017-Dec-08 10:58S 01°28' W 056°23'0 0.0
2017-Dec-08 10:28S 01°28' W 056°23'0 0.0
2017-Dec-08 09:53S 01°28' W 056°23'0 0.0
2017-Dec-08 09:28S 01°28' W 056°23'0 0.0
2017-Dec-08 08:58S 01°28' W 056°23'0 0.0
2017-Dec-08 08:28S 01°28' W 056°23'  
Track history (hours):
 
Tides and Currents Weather Stations Pressure Air Temp Water Temp Dewpoint Dewpoint Depression Visibility Wind Speed Wind Dir Waves Ship Positions

Brahms

Last reported at 2017-Dec-12 02:02 UTC. Time now 2017-Dec-16 07:06 UTC.
Position N 00°11' W 050°44'.

Length 225 m; draft 11.6 m.

Type: Other ship. MMSI: 229731000.

Date/timePositionNaut miles runAvg speedWind from/ knotsBaromVisibWave heightAir tempDewpointWater temp
2017-Dec-12 02:02N 00°11' W 050°44'011.4
2017-Dec-12 02:00N 00°11' W 050°44'510.6
2017-Dec-12 01:30N 00°10' W 050°49'510.0
2017-Dec-12 01:00N 00°10' W 050°54'5 9.8
2017-Dec-12 00:30N 00°06' W 050°58'5 9.7
2017-Dec-12 00:00N 00°02' W 051°00'4 8.4
2017-Dec-11 23:30S 00°01' W 051°03'4 7.3
2017-Dec-11 23:00S 00°03' W 051°06'1 1.2
2017-Dec-11 22:25S 00°04' W 051°06'0 0.1
2017-Dec-11 21:55S 00°04' W 051°06'0 0.1
2017-Dec-11 21:28S 00°04' W 051°06'0 0.2
2017-Dec-11 20:55S 00°04' W 051°06'0 0.2
2017-Dec-11 20:28S 00°04' W 051°06'0 0.1
2017-Dec-11 19:58S 00°04' W 051°06'0 0.0
2017-Dec-11 19:28S 00°04' W 051°06'0 0.1
2017-Dec-11 18:58S 00°04' W 051°06'0 0.0
2017-Dec-11 18:28S 00°04' W 051°06'0 0.0
2017-Dec-11 17:58S 00°04' W 051°06'0 0.0
2017-Dec-11 17:28S 00°04' W 051°06'0 0.1
2017-Dec-11 16:58S 00°04' W 051°06'1 2.0
2017-Dec-11 16:30S 00°04' W 051°05'7 6.6
2017-Dec-11 15:24N 00°02' W 051°00'2 5.3
2017-Dec-11 15:00N 00°03' W 050°59'0 0.7
2017-Dec-11 14:27N 00°03' W 050°59'0 0.0
2017-Dec-11 13:57N 00°03' W 050°59'0 0.0
2017-Dec-11 13:27N 00°03' W 050°59'0 0.0
2017-Dec-11 12:57N 00°03' W 050°59'0 0.0
2017-Dec-11 12:27N 00°03' W 050°59'0 0.0
2017-Dec-11 11:57N 00°03' W 050°59'0 0.0
2017-Dec-11 11:27N 00°03' W 050°59'0 0.1
2017-Dec-11 10:57N 00°03' W 050°59'0 0.5
2017-Dec-11 10:27N 00°03' W 050°59'0 0.2
2017-Dec-11 09:57N 00°03' W 050°59'0 0.0
2017-Dec-11 09:27N 00°03' W 050°59'0 0.0
2017-Dec-11 08:57N 00°03' W 050°59'0 0.0
2017-Dec-11 08:27N 00°03' W 050°59'0 0.0
2017-Dec-11 07:57N 00°03' W 050°59'0 0.0
2017-Dec-11 07:27N 00°03' W 050°59'0 0.0
2017-Dec-11 06:57N 00°03' W 050°59'0 0.0
2017-Dec-11 06:27N 00°03' W 050°59'0 0.0
2017-Dec-11 05:57N 00°03' W 050°59'0 0.0
2017-Dec-11 05:27N 00°03' W 050°59'0 0.0
2017-Dec-11 04:57N 00°03' W 050°59'0 0.0
2017-Dec-11 04:27N 00°03' W 050°59'0 0.0
2017-Dec-11 03:57N 00°03' W 050°59'0 0.0
2017-Dec-11 03:27N 00°03' W 050°59'0 0.1
2017-Dec-11 02:57N 00°03' W 050°59'0 0.3
2017-Dec-11 02:27N 00°03' W 050°59'0 0.2
2017-Dec-11 01:57N 00°03' W 050°59'0 0.1
2017-Dec-11 01:27N 00°03' W 050°59'0 0.0
2017-Dec-11 00:57N 00°03' W 050°59'0 0.0
2017-Dec-11 00:27N 00°03' W 050°59'0 0.2
2017-Dec-10 23:57N 00°03' W 050°59'1 1.9
2017-Dec-10 23:30N 00°02' W 050°60'3 5.6
2017-Dec-10 23:00S 00°00' W 051°01'3 6.0
2017-Dec-10 22:30S 00°03' W 051°00'5 9.3
2017-Dec-10 22:00S 00°08' W 051°01'331 6.4
2017-Dec-08 18:17S 01°28' W 056°23'0 0.0
2017-Dec-08 17:58S 01°28' W 056°23'0 0.0
2017-Dec-08 17:26S 01°28' W 056°23'0 0.0
2017-Dec-08 16:53S 01°28' W 056°23'0 0.0
2017-Dec-08 16:28S 01°28' W 056°23'0 0.0
2017-Dec-08 15:58S 01°28' W 056°23'0 0.0
2017-Dec-08 15:25S 01°28' W 056°23'0 0.0
2017-Dec-08 14:58S 01°28' W 056°23'0 0.0
2017-Dec-08 14:28S 01°28' W 056°23'0 0.0
2017-Dec-08 13:56S 01°28' W 056°23'0 0.0
2017-Dec-08 13:25S 01°28' W 056°23'0 0.0
2017-Dec-08 12:58S 01°28' W 056°23'0 0.0
2017-Dec-08 12:28S 01°28' W 056°23'0 0.0
2017-Dec-08 11:58S 01°28' W 056°23'0 0.0
2017-Dec-08 11:28S 01°28' W 056°23'0 0.0
2017-Dec-08 10:58S 01°28' W 056°23'0 0.0
2017-Dec-08 10:28S 01°28' W 056°23'0 0.0
2017-Dec-08 09:53S 01°28' W 056°23'0 0.0
2017-Dec-08 09:28S 01°28' W 056°23'0 0.0
2017-Dec-08 08:58S 01°28' W 056°23'0 0.0
2017-Dec-08 08:28S 01°28' W 056°23'  

Dump ship's entire track history